createdAt,value
2022-12-27T00:01:31.032Z,6.50
2022-12-27T00:03:57.769Z,6.31
2022-12-27T00:06:25.756Z,6.52
2022-12-27T00:08:52.940Z,6.63
2022-12-27T00:11:22.212Z,6.31
2022-12-27T00:13:49.136Z,5.90
2022-12-27T00:16:17.817Z,6.18
2022-12-27T00:18:45.037Z,5.89
2022-12-27T00:21:12.852Z,6.41
2022-12-27T00:23:43.393Z,5.67
2022-12-27T00:26:15.765Z,6.22
2022-12-27T00:28:42.659Z,6.18
2022-12-27T00:31:09.196Z,5.80
2022-12-27T00:33:37.525Z,6.43
2022-12-27T00:36:05.847Z,6.14
2022-12-27T00:38:32.576Z,6.04
2022-12-27T00:40:59.400Z,6.24
2022-12-27T00:43:26.032Z,5.94
2022-12-27T00:45:52.939Z,5.46
2022-12-27T00:48:19.470Z,5.76
2022-12-27T00:50:46.058Z,5.63
2022-12-27T00:53:12.793Z,5.75
2022-12-27T00:55:42.699Z,5.46
2022-12-27T00:58:09.864Z,5.86
2022-12-27T01:00:36.549Z,5.75
2022-12-27T01:03:03.305Z,5.68
2022-12-27T01:05:30.034Z,5.41
2022-12-27T01:07:56.542Z,5.68
2022-12-27T01:10:23.268Z,5.62
2022-12-27T01:12:49.764Z,5.57
2022-12-27T01:15:16.199Z,5.69
2022-12-27T01:17:42.690Z,5.86
2022-12-27T01:20:09.418Z,5.69
2022-12-27T01:22:36.164Z,5.53
2022-12-27T01:25:02.687Z,5.54
2022-12-27T01:27:29.142Z,5.46
2022-12-27T01:29:55.654Z,5.57
2022-12-27T01:32:22.228Z,5.72
2022-12-27T01:34:50.383Z,5.80
2022-12-27T01:37:17.207Z,5.10
2022-12-27T01:39:44.247Z,5.28
2022-12-27T01:42:38.907Z,5.60
2022-12-27T01:45:18.961Z,5.89
2022-12-27T01:48:31.702Z,5.74
2022-12-27T01:51:01.568Z,5.81
2022-12-27T01:53:34.243Z,5.92
2022-12-27T01:56:06.587Z,5.64
2022-12-27T01:58:40.019Z,5.83
2022-12-27T02:01:11.317Z,5.35
2022-12-27T02:03:43.228Z,5.83
2022-12-27T02:06:11.632Z,5.86
2022-12-27T02:08:49.122Z,5.61
2022-12-27T02:11:16.931Z,5.82
2022-12-27T02:13:45.107Z,5.82
2022-12-27T02:16:19.564Z,5.42
2022-12-27T02:18:46.304Z,5.70
2022-12-27T02:21:31.510Z,5.64
2022-12-27T02:24:11.918Z,5.52
2022-12-27T02:26:49.055Z,5.53
2022-12-27T02:29:24.737Z,6.03
2022-12-27T02:32:04.057Z,5.98
2022-12-27T02:34:38.104Z,6.13
2022-12-27T02:37:08.533Z,6.04
2022-12-27T02:39:38.240Z,5.68
2022-12-27T02:42:24.272Z,5.66
2022-12-27T02:45:09.345Z,6.08
2022-12-27T02:47:55.010Z,5.80
2022-12-27T02:50:40.071Z,5.69
2022-12-27T02:53:11.659Z,5.97
2022-12-27T02:56:27.751Z,6.07
2022-12-27T02:59:18.747Z,5.97
2022-12-27T03:02:23.007Z,6.26
2022-12-27T03:05:08.460Z,6.08
2022-12-27T03:07:34.854Z,5.85
2022-12-27T03:10:29.569Z,5.81
2022-12-27T03:13:38.385Z,5.82
2022-12-27T03:16:26.133Z,5.94
2022-12-27T03:19:12.900Z,5.66
2022-12-27T03:22:05.152Z,5.65
2022-12-27T03:24:53.699Z,5.37
2022-12-27T03:27:28.371Z,5.44
2022-12-27T03:30:15.157Z,6.06
2022-12-27T03:33:05.844Z,5.77
2022-12-27T03:35:38.410Z,5.93
2022-12-27T03:38:05.781Z,5.96
2022-12-27T03:41:16.377Z,6.27
2022-12-27T03:43:42.977Z,6.15
2022-12-27T03:46:46.312Z,5.58
2022-12-27T03:49:34.659Z,5.64
2022-12-27T03:52:24.599Z,5.89
2022-12-27T03:54:52.059Z,5.95
2022-12-27T03:57:21.288Z,5.76
2022-12-27T03:59:48.127Z,6.01
2022-12-27T04:02:14.850Z,5.77
2022-12-27T04:04:41.795Z,5.88
2022-12-27T04:07:08.681Z,6.14
2022-12-27T04:09:53.856Z,5.98
2022-12-27T04:12:39.043Z,6.51
2022-12-27T04:15:24.424Z,5.64
2022-12-27T04:18:09.660Z,5.75
2022-12-27T04:20:54.787Z,5.61
2022-12-27T04:23:39.960Z,6.33
2022-12-27T04:26:25.314Z,6.20
2022-12-27T04:29:10.457Z,6.02
2022-12-27T04:31:55.616Z,5.88
2022-12-27T04:34:40.718Z,6.12
2022-12-27T04:37:07.549Z,6.19
2022-12-27T04:39:34.202Z,6.11
2022-12-27T04:42:19.460Z,6.48
2022-12-27T04:45:04.358Z,6.24
2022-12-27T04:47:50.084Z,5.82
2022-12-27T04:50:44.473Z,6.21
2022-12-27T04:53:31.829Z,5.87
2022-12-27T04:55:58.553Z,6.05
2022-12-27T04:58:25.561Z,6.20
2022-12-27T05:01:14.309Z,6.34
2022-12-27T05:03:41.516Z,6.21
2022-12-27T05:06:08.294Z,6.09
2022-12-27T05:08:53.604Z,5.88
2022-12-27T05:11:38.675Z,6.22
2022-12-27T05:14:11.380Z,6.50
2022-12-27T05:16:39.954Z,6.17
2022-12-27T05:19:07.995Z,5.97
2022-12-27T05:22:05.987Z,6.06
2022-12-27T05:24:51.277Z,6.12
2022-12-27T05:27:18.359Z,6.27
2022-12-27T05:29:45.852Z,6.07
2022-12-27T05:32:13.638Z,6.37
2022-12-27T05:34:40.826Z,6.15
2022-12-27T05:37:07.626Z,6.69
2022-12-27T05:39:34.090Z,6.28
2022-12-27T05:42:00.744Z,6.12
2022-12-27T05:44:27.247Z,6.30
2022-12-27T05:46:54.681Z,6.55
2022-12-27T05:49:21.368Z,6.37
2022-12-27T05:51:47.878Z,6.37
2022-12-27T05:54:14.626Z,6.89
2022-12-27T05:56:41.245Z,6.59
2022-12-27T05:59:08.109Z,6.99
2022-12-27T06:01:34.851Z,6.73
2022-12-27T06:04:01.445Z,7.06
2022-12-27T06:06:28.861Z,6.92
2022-12-27T06:08:55.475Z,6.52
2022-12-27T06:11:22.239Z,6.74
2022-12-27T06:13:51.519Z,6.90
2022-12-27T06:16:19.283Z,6.35
2022-12-27T06:18:45.961Z,6.96
2022-12-27T06:21:15.242Z,6.68
2022-12-27T06:23:44.607Z,6.89
2022-12-27T06:26:14.522Z,6.23
2022-12-27T06:28:41.237Z,6.47
2022-12-27T06:31:07.744Z,6.51
2022-12-27T06:33:35.274Z,6.97
2022-12-27T06:36:13.312Z,6.87
2022-12-27T06:38:40.590Z,6.84
2022-12-27T06:41:09.143Z,6.40
2022-12-27T06:43:36.135Z,6.58
2022-12-27T06:46:04.834Z,6.08
2022-12-27T06:48:31.721Z,6.61
2022-12-27T06:50:58.782Z,5.84
2022-12-27T06:53:25.223Z,6.32
2022-12-27T06:55:51.920Z,6.29
2022-12-27T06:58:18.429Z,6.62
2022-12-27T07:00:44.991Z,5.97
2022-12-27T07:03:11.528Z,6.44
2022-12-27T07:05:38.214Z,6.05
2022-12-27T07:08:05.406Z,6.23
2022-12-27T07:10:32.026Z,6.23
2022-12-27T07:12:58.888Z,6.74
2022-12-27T07:15:25.380Z,6.29
2022-12-27T07:17:52.240Z,6.63
2022-12-27T07:20:18.791Z,6.49
2022-12-27T07:22:45.359Z,6.38
2022-12-27T07:25:11.844Z,6.41
2022-12-27T07:27:38.364Z,6.51
2022-12-27T07:30:05.634Z,6.57
2022-12-27T07:32:32.352Z,6.67
2022-12-27T07:34:59.026Z,6.69
2022-12-27T07:37:25.499Z,6.65
2022-12-27T07:39:52.002Z,6.38
2022-12-27T07:42:18.522Z,6.25
2022-12-27T07:44:45.005Z,6.01
2022-12-27T07:47:11.486Z,6.29
2022-12-27T07:49:37.968Z,6.30
2022-12-27T07:52:04.482Z,6.59
2022-12-27T07:54:30.927Z,6.47
2022-12-27T07:56:57.412Z,6.44
2022-12-27T07:59:23.954Z,6.50
2022-12-27T08:02:05.689Z,6.40
2022-12-27T08:04:34.903Z,6.65
2022-12-27T08:07:07.557Z,6.49
2022-12-27T08:09:36.950Z,6.52
2022-12-27T08:12:03.904Z,6.08
2022-12-27T08:14:30.567Z,6.62
2022-12-27T08:17:02.174Z,6.76
2022-12-27T08:19:28.647Z,6.96
2022-12-27T08:21:55.132Z,6.92
2022-12-27T08:24:21.596Z,6.80
2022-12-27T08:26:48.431Z,7.15
2022-12-27T08:29:14.889Z,6.25
2022-12-27T08:31:41.675Z,6.84
2022-12-27T08:34:08.221Z,6.33
2022-12-27T08:36:54.583Z,6.82
2022-12-27T08:39:21.218Z,6.40
2022-12-27T08:41:47.994Z,6.94
2022-12-27T08:44:15.389Z,7.19
2022-12-27T08:46:41.872Z,7.33
2022-12-27T08:49:08.389Z,7.16
2022-12-27T08:51:40.759Z,6.92
2022-12-27T08:54:07.953Z,6.83
2022-12-27T08:56:34.450Z,6.99
2022-12-27T08:59:01.155Z,7.19
2022-12-27T09:01:27.992Z,6.91
2022-12-27T09:03:54.590Z,7.32
2022-12-27T09:06:23.113Z,7.14
2022-12-27T09:08:51.020Z,7.03
2022-12-27T09:11:20.086Z,7.06
2022-12-27T09:13:47.084Z,7.45
2022-12-27T09:16:18.874Z,7.44
2022-12-27T09:18:48.875Z,7.47
2022-12-27T09:21:17.090Z,7.65
2022-12-27T09:23:44.428Z,8.32
2022-12-27T09:26:15.948Z,9.66
2022-12-27T09:28:42.923Z,11.01
2022-12-27T09:31:10.880Z,12.60
2022-12-27T09:33:38.073Z,10.40
2022-12-27T09:36:11.561Z,12.20
2022-12-27T09:38:38.631Z,10.60
2022-12-27T09:41:19.291Z,10.11
2022-12-27T09:44:04.035Z,10.03
2022-12-27T09:46:40.987Z,11.27
2022-12-27T09:49:20.595Z,11.39
2022-12-27T09:51:51.935Z,13.34
2022-12-27T09:54:23.900Z,14.14
2022-12-27T09:59:40.275Z,17.54
2022-12-27T10:02:21.672Z,17.05
2022-12-27T10:07:57.197Z,16.11
2022-12-27T10:10:35.110Z,15.72
2022-12-27T10:13:20.260Z,15.57
2022-12-27T10:16:18.121Z,14.75
2022-12-27T10:19:07.677Z,15.71
2022-12-27T10:21:36.208Z,12.03
2022-12-27T10:24:11.770Z,12.57
2022-12-27T10:26:38.892Z,11.07
2022-12-27T10:29:17.794Z,11.72
2022-12-27T10:31:44.484Z,11.18
2022-12-27T10:34:15.295Z,13.54
2022-12-27T10:36:42.353Z,13.75
2022-12-27T10:39:29.938Z,13.32
2022-12-27T10:41:59.521Z,12.91
2022-12-27T10:44:26.065Z,12.37
2022-12-27T10:46:54.075Z,13.98
2022-12-27T10:49:29.300Z,13.75
2022-12-27T10:51:59.104Z,14.19
2022-12-27T10:54:28.039Z,17.39
2022-12-27T10:56:56.124Z,15.35
2022-12-27T10:59:27.957Z,15.44
2022-12-27T11:02:01.685Z,16.84
2022-12-27T11:04:30.505Z,17.17
2022-12-27T11:07:01.756Z,17.73
2022-12-27T11:09:37.918Z,17.99
2022-12-27T11:12:24.816Z,16.42
2022-12-27T11:15:06.304Z,15.67
2022-12-27T11:17:42.111Z,16.16
2022-12-27T11:20:12.452Z,16.07
2022-12-27T11:22:48.633Z,16.92
2022-12-27T11:25:16.293Z,16.56
2022-12-27T11:27:56.076Z,15.13
2022-12-27T11:30:27.471Z,14.82
2022-12-27T11:32:54.095Z,15.21
2022-12-27T11:35:21.845Z,16.07
2022-12-27T11:37:49.152Z,15.91
2022-12-27T11:40:30.576Z,17.12
2022-12-27T11:43:08.218Z,14.93
2022-12-27T11:45:38.079Z,14.25
2022-12-27T11:48:14.859Z,14.89
2022-12-27T11:50:55.938Z,15.40
2022-12-27T11:54:00.147Z,14.34
2022-12-27T11:56:28.980Z,14.51
2022-12-27T11:59:20.466Z,12.91
2022-12-27T12:01:56.089Z,12.85
2022-12-27T12:04:48.746Z,14.61
2022-12-27T12:07:18.342Z,16.84
2022-12-27T12:10:02.118Z,16.49
2022-12-27T12:12:43.200Z,16.99
2022-12-27T12:15:39.173Z,15.57
2022-12-27T12:18:12.423Z,15.09
2022-12-27T12:20:39.069Z,14.46
2022-12-27T12:23:05.546Z,15.64
2022-12-27T12:26:08.937Z,16.13
2022-12-27T12:28:58.735Z,19.11
2022-12-27T12:31:49.472Z,16.38
2022-12-27T12:34:51.159Z,15.88
2022-12-27T12:37:40.875Z,13.26
2022-12-27T12:40:29.463Z,10.69
2022-12-27T12:42:58.944Z,10.96
2022-12-27T12:46:03.307Z,11.60
2022-12-27T12:48:58.109Z,11.20
2022-12-27T12:51:38.807Z,11.09
2022-12-27T12:54:14.351Z,11.16
2022-12-27T12:56:54.523Z,10.93
2022-12-27T12:59:59.512Z,10.68
2022-12-27T13:02:35.417Z,10.63
2022-12-27T13:05:13.597Z,11.04
2022-12-27T13:08:09.948Z,10.31
2022-12-27T13:10:57.644Z,10.54
2022-12-27T13:13:34.270Z,10.24
2022-12-27T13:16:24.274Z,10.09
2022-12-27T13:19:37.303Z,10.35
2022-12-27T13:22:16.520Z,9.74
2022-12-27T13:25:08.450Z,9.92
2022-12-27T13:27:41.129Z,9.67
2022-12-27T13:30:20.154Z,10.22
2022-12-27T13:33:01.921Z,9.71
2022-12-27T13:35:35.623Z,10.18
2022-12-27T13:38:26.673Z,10.42
2022-12-27T13:41:14.561Z,10.35
2022-12-27T13:44:01.544Z,10.45
2022-12-27T13:46:40.034Z,9.80
2022-12-27T13:49:27.776Z,9.91
2022-12-27T13:52:02.639Z,9.86
2022-12-27T13:54:56.557Z,9.91
2022-12-27T13:57:26.232Z,9.86
2022-12-27T14:00:04.357Z,10.23
2022-12-27T14:02:37.425Z,10.43
2022-12-27T14:05:19.445Z,10.66
2022-12-27T14:08:04.243Z,10.49
2022-12-27T14:10:37.645Z,10.45
2022-12-27T14:13:08.769Z,10.82
2022-12-27T14:15:41.340Z,11.04
2022-12-27T14:18:23.014Z,11.01
2022-12-27T14:21:01.029Z,10.71
2022-12-27T14:23:40.417Z,10.63
2022-12-27T14:26:25.278Z,10.65
2022-12-27T14:28:59.760Z,10.30
2022-12-27T14:31:51.198Z,10.55
2022-12-27T14:34:44.157Z,10.50
2022-12-27T14:38:05.266Z,9.96
2022-12-27T14:40:35.164Z,10.65
2022-12-27T14:43:23.513Z,10.09
2022-12-27T14:46:29.520Z,10.40
2022-12-27T14:49:17.396Z,9.78
2022-12-27T14:52:03.407Z,9.96
2022-12-27T14:54:54.613Z,9.91
2022-12-27T14:57:42.623Z,10.14
2022-12-27T15:00:15.830Z,9.81
2022-12-27T15:02:54.528Z,9.36
2022-12-27T15:05:58.455Z,9.16
2022-12-27T15:08:43.702Z,9.28
2022-12-27T15:11:31.505Z,9.39
2022-12-27T15:14:19.704Z,9.91
2022-12-27T15:16:56.413Z,9.40
2022-12-27T15:19:28.788Z,8.85
2022-12-27T15:21:58.405Z,9.07
2022-12-27T15:24:45.120Z,9.41
2022-12-27T15:27:20.384Z,9.26
2022-12-27T15:30:14.864Z,9.02
2022-12-27T15:32:48.256Z,9.01
2022-12-27T15:35:17.771Z,9.02
2022-12-27T15:37:47.412Z,9.06
2022-12-27T15:40:23.212Z,9.17
2022-12-27T15:43:10.815Z,9.25
2022-12-27T15:45:53.326Z,8.69
2022-12-27T15:48:57.358Z,8.93
2022-12-27T15:51:45.898Z,9.06
2022-12-27T15:54:30.734Z,9.19
2022-12-27T15:57:20.522Z,9.02
2022-12-27T15:59:51.140Z,9.02
2022-12-27T16:02:24.749Z,9.01
2022-12-27T16:05:22.155Z,9.42
2022-12-27T16:08:29.351Z,9.08
2022-12-27T16:10:56.565Z,9.57
2022-12-27T16:13:41.820Z,9.36
2022-12-27T16:16:38.570Z,9.18
2022-12-27T16:19:18.193Z,8.72
2022-12-27T16:21:46.071Z,8.99
2022-12-27T16:24:17.013Z,8.92
2022-12-27T16:26:52.104Z,8.76
2022-12-27T16:29:26.466Z,8.48
2022-12-27T16:32:13.159Z,9.45
2022-12-27T16:34:40.365Z,9.21
2022-12-27T16:37:22.560Z,9.39
2022-12-27T16:40:04.862Z,8.73
2022-12-27T16:42:54.109Z,8.93
2022-12-27T16:45:39.272Z,9.09
2022-12-27T16:48:20.787Z,9.36
2022-12-27T16:51:13.401Z,9.30
2022-12-27T16:54:01.194Z,9.56
2022-12-27T16:56:39.022Z,9.14
2022-12-27T16:59:51.044Z,9.14
2022-12-27T17:02:32.353Z,9.03
2022-12-27T17:05:01.477Z,9.22
2022-12-27T17:07:50.287Z,8.60
2022-12-27T17:10:30.160Z,9.50
2022-12-27T17:13:20.938Z,9.28
2022-12-27T17:16:28.001Z,9.20
2022-12-27T17:19:00.687Z,8.72
2022-12-27T17:21:33.013Z,9.14
2022-12-27T17:24:11.514Z,8.66
2022-12-27T17:26:59.886Z,8.44
2022-12-27T17:29:35.989Z,8.69
2022-12-27T17:32:20.560Z,8.50
2022-12-27T17:34:59.548Z,8.32
2022-12-27T17:37:38.244Z,8.54
2022-12-27T17:40:10.735Z,8.31
2022-12-27T17:43:17.767Z,8.63
2022-12-27T17:45:55.704Z,8.55
2022-12-27T17:48:29.754Z,8.32
2022-12-27T17:51:01.549Z,8.27
2022-12-27T17:53:47.341Z,8.55
2022-12-27T17:56:38.554Z,8.82
2022-12-27T17:59:08.070Z,8.57
2022-12-27T18:01:49.039Z,8.08
2022-12-27T18:04:29.181Z,8.39
2022-12-27T18:06:58.306Z,8.29
2022-12-27T18:09:37.075Z,8.23
2022-12-27T18:12:13.966Z,8.11
2022-12-27T18:14:40.888Z,8.24
2022-12-27T18:17:09.770Z,8.47
2022-12-27T18:19:36.474Z,8.33
2022-12-27T18:22:03.433Z,8.69
2022-12-27T18:24:32.356Z,8.79
2022-12-27T18:27:07.275Z,7.99
2022-12-27T18:29:34.262Z,8.12
2022-12-27T18:32:04.626Z,8.18
2022-12-27T18:34:51.491Z,7.92
2022-12-27T18:37:21.125Z,8.64
2022-12-27T18:40:03.151Z,8.02
2022-12-27T18:42:51.456Z,8.32
2022-12-27T18:45:31.679Z,8.67
2022-12-27T18:48:02.055Z,8.04
2022-12-27T18:50:30.591Z,7.86
2022-12-27T18:53:33.358Z,7.71
2022-12-27T18:56:05.212Z,7.81
2022-12-27T18:58:32.570Z,8.10
2022-12-27T19:01:19.714Z,7.97
2022-12-27T19:04:14.377Z,7.63
2022-12-27T19:06:53.269Z,7.47
2022-12-27T19:09:21.069Z,7.63
2022-12-27T19:12:02.590Z,7.73
2022-12-27T19:14:47.790Z,7.73
2022-12-27T19:17:26.483Z,7.58
2022-12-27T19:19:54.823Z,7.30
2022-12-27T19:22:41.692Z,7.39
2022-12-27T19:25:28.162Z,7.14
2022-12-27T19:28:05.781Z,7.21
2022-12-27T19:30:34.248Z,7.47
2022-12-27T19:33:02.656Z,7.22
2022-12-27T19:35:29.276Z,7.32
2022-12-27T19:37:57.241Z,7.49
2022-12-27T19:40:24.220Z,6.93
2022-12-27T19:42:50.689Z,7.23
2022-12-27T19:45:18.020Z,7.07
2022-12-27T19:47:45.359Z,7.19
2022-12-27T19:50:12.029Z,6.98
2022-12-27T19:52:39.021Z,7.14
2022-12-27T19:55:08.354Z,7.31
2022-12-27T19:57:34.972Z,7.14
2022-12-27T20:00:05.357Z,7.18
2022-12-27T20:02:35.197Z,7.09
2022-12-27T20:05:02.031Z,7.05
2022-12-27T20:07:28.490Z,6.92
2022-12-27T20:09:55.011Z,6.86
2022-12-27T20:12:21.774Z,7.01
2022-12-27T20:14:48.640Z,6.83
2022-12-27T20:17:15.589Z,7.42
2022-12-27T20:19:42.093Z,7.05
2022-12-27T20:22:08.569Z,6.92
2022-12-27T20:24:36.932Z,6.88
2022-12-27T20:27:04.191Z,6.66
2022-12-27T20:29:30.761Z,7.11
2022-12-27T20:31:58.259Z,6.69
2022-12-27T20:34:24.829Z,6.78
2022-12-27T20:36:54.995Z,6.72
2022-12-27T20:39:21.591Z,6.62
2022-12-27T20:41:48.087Z,6.58
2022-12-27T20:44:15.317Z,7.09
2022-12-27T20:46:41.914Z,6.79
2022-12-27T20:49:08.694Z,6.91
2022-12-27T20:51:35.216Z,6.49
2022-12-27T20:54:02.864Z,6.71
2022-12-27T20:56:29.840Z,6.79
2022-12-27T20:58:57.371Z,7.05
2022-12-27T21:01:25.659Z,6.71
2022-12-27T21:03:53.767Z,7.06
2022-12-27T21:06:22.908Z,7.17
2022-12-27T21:08:56.190Z,7.13
2022-12-27T21:11:33.129Z,6.99
2022-12-27T21:14:03.714Z,7.09
2022-12-27T21:16:32.358Z,7.02
2022-12-27T21:19:03.278Z,7.07
2022-12-27T21:21:31.266Z,6.89
2022-12-27T21:23:58.688Z,7.37
2022-12-27T21:26:28.139Z,7.12
2022-12-27T21:28:55.159Z,7.63
2022-12-27T21:31:22.160Z,6.97
2022-12-27T21:33:49.027Z,6.87
2022-12-27T21:36:18.937Z,7.14
2022-12-27T21:38:45.752Z,7.05
2022-12-27T21:41:19.605Z,7.03
2022-12-27T21:43:47.073Z,7.11
2022-12-27T21:46:16.650Z,6.94
2022-12-27T21:48:43.654Z,6.99
2022-12-27T21:51:18.679Z,7.00
2022-12-27T21:53:46.135Z,7.02
2022-12-27T21:56:16.239Z,7.13
2022-12-27T21:58:43.720Z,7.37
2022-12-27T22:01:24.449Z,7.50
2022-12-27T22:03:52.136Z,6.70
2022-12-27T22:06:21.748Z,7.13
2022-12-27T22:08:50.885Z,7.10
2022-12-27T22:11:18.263Z,6.83
2022-12-27T22:13:45.157Z,7.34
2022-12-27T22:16:14.481Z,7.22
2022-12-27T22:18:42.765Z,6.79
2022-12-27T22:21:11.856Z,6.97
2022-12-27T22:23:40.614Z,7.18
2022-12-27T22:26:16.356Z,7.30
2022-12-27T22:28:43.716Z,7.33
2022-12-27T22:31:12.907Z,7.46
2022-12-27T22:33:39.785Z,7.21
2022-12-27T22:36:08.787Z,7.70
2022-12-27T22:38:36.800Z,7.30
2022-12-27T22:41:11.020Z,7.03
2022-12-27T22:43:38.676Z,7.10
2022-12-27T22:46:07.504Z,7.06
2022-12-27T22:48:34.689Z,6.89
2022-12-27T22:51:14.712Z,7.63
2022-12-27T22:53:41.307Z,7.11
2022-12-27T22:56:15.734Z,7.10
2022-12-27T22:58:42.925Z,7.06
2022-12-27T23:01:14.361Z,6.96
2022-12-27T23:03:41.646Z,6.91
2022-12-27T23:06:10.707Z,7.03
2022-12-27T23:08:37.308Z,7.19
2022-12-27T23:11:14.859Z,6.87
2022-12-27T23:13:41.554Z,7.08
2022-12-27T23:16:08.765Z,7.10
2022-12-27T23:18:41.877Z,7.28
2022-12-27T23:21:20.675Z,7.40
2022-12-27T23:23:50.511Z,7.03
2022-12-27T23:26:20.370Z,7.51
2022-12-27T23:28:47.815Z,7.40
2022-12-27T23:31:14.894Z,7.08
2022-12-27T23:33:42.825Z,6.97
2022-12-27T23:36:10.779Z,7.17
2022-12-27T23:38:37.985Z,7.10
2022-12-27T23:41:06.601Z,7.44
2022-12-27T23:43:55.010Z,7.32
2022-12-27T23:46:31.070Z,7.64
2022-12-27T23:48:59.584Z,7.53
2022-12-27T23:51:28.083Z,7.42
2022-12-27T23:53:54.955Z,7.33
2022-12-27T23:56:27.309Z,7.27
2022-12-27T23:58:55.467Z,7.36
